sensor_id;sensor_type;location;lat;lon;timestamp;temperature;humidity
39021;DHT22;25188;51.958;5.842;2023-05-31T00:02:23;13.80;83.50
39021;DHT22;25188;51.958;5.842;2023-05-31T00:04:48;13.80;83.60
39021;DHT22;25188;51.958;5.842;2023-05-31T00:07:14;13.70;84.30
39021;DHT22;25188;51.958;5.842;2023-05-31T00:09:40;13.70;84.90
39021;DHT22;25188;51.958;5.842;2023-05-31T00:12:06;13.70;84.60
39021;DHT22;25188;51.958;5.842;2023-05-31T00:14:31;13.70;84.70
39021;DHT22;25188;51.958;5.842;2023-05-31T00:16:57;13.70;85.40
39021;DHT22;25188;51.958;5.842;2023-05-31T00:19:23;13.60;85.50
39021;DHT22;25188;51.958;5.842;2023-05-31T00:21:48;13.60;85.60
39021;DHT22;25188;51.958;5.842;2023-05-31T00:24:15;13.60;85.60
39021;DHT22;25188;51.958;5.842;2023-05-31T00:26:40;13.50;86.20
39021;DHT22;25188;51.958;5.842;2023-05-31T00:29:06;13.50;86.50
39021;DHT22;25188;51.958;5.842;2023-05-31T00:31:32;13.50;86.80
39021;DHT22;25188;51.958;5.842;2023-05-31T00:33:57;13.50;86.90
39021;DHT22;25188;51.958;5.842;2023-05-31T00:36:23;13.50;87.30
39021;DHT22;25188;51.958;5.842;2023-05-31T00:38:49;13.50;87.70
39021;DHT22;25188;51.958;5.842;2023-05-31T00:41:15;13.40;88.00
39021;DHT22;25188;51.958;5.842;2023-05-31T00:43:41;13.40;88.00
39021;DHT22;25188;51.958;5.842;2023-05-31T00:46:11;13.40;88.20
39021;DHT22;25188;51.958;5.842;2023-05-31T00:48:40;13.30;88.40
39021;DHT22;25188;51.958;5.842;2023-05-31T00:51:07;13.30;88.80
39021;DHT22;25188;51.958;5.842;2023-05-31T00:53:34;13.30;88.70
39021;DHT22;25188;51.958;5.842;2023-05-31T00:56:00;13.30;88.80
39021;DHT22;25188;51.958;5.842;2023-05-31T00:58:26;13.30;89.40
39021;DHT22;25188;51.958;5.842;2023-05-31T01:00:54;13.30;89.20
39021;DHT22;25188;51.958;5.842;2023-05-31T01:03:19;13.20;89.40
39021;DHT22;25188;51.958;5.842;2023-05-31T01:05:46;13.20;89.70
39021;DHT22;25188;51.958;5.842;2023-05-31T01:08:11;13.20;89.70
39021;DHT22;25188;51.958;5.842;2023-05-31T01:10:40;13.20;90.00
39021;DHT22;25188;51.958;5.842;2023-05-31T01:13:12;13.10;90.00
39021;DHT22;25188;51.958;5.842;2023-05-31T01:15:54;13.10;90.10
39021;DHT22;25188;51.958;5.842;2023-05-31T01:20:53;13.10;90.30
39021;DHT22;25188;51.958;5.842;2023-05-31T01:28:48;13.00;90.30
39021;DHT22;25188;51.958;5.842;2023-05-31T01:31:18;13.00;90.50
39021;DHT22;25188;51.958;5.842;2023-05-31T01:33:45;13.00;90.40
39021;DHT22;25188;51.958;5.842;2023-05-31T01:36:11;13.00;90.70
39021;DHT22;25188;51.958;5.842;2023-05-31T01:38:37;13.00;91.00
39021;DHT22;25188;51.958;5.842;2023-05-31T01:41:02;13.00;91.10
39021;DHT22;25188;51.958;5.842;2023-05-31T01:43:31;12.90;91.50
39021;DHT22;25188;51.958;5.842;2023-05-31T01:45:58;12.90;91.10
39021;DHT22;25188;51.958;5.842;2023-05-31T01:48:26;12.90;91.10
39021;DHT22;25188;51.958;5.842;2023-05-31T01:50:53;12.80;91.20
39021;DHT22;25188;51.958;5.842;2023-05-31T01:53:19;12.90;91.30
39021;DHT22;25188;51.958;5.842;2023-05-31T01:55:45;12.80;91.30
39021;DHT22;25188;51.958;5.842;2023-05-31T01:58:12;12.80;91.30
39021;DHT22;25188;51.958;5.842;2023-05-31T02:00:40;12.80;91.40
39021;DHT22;25188;51.958;5.842;2023-05-31T02:03:06;12.80;91.50
39021;DHT22;25188;51.958;5.842;2023-05-31T02:05:32;12.80;91.70
39021;DHT22;25188;51.958;5.842;2023-05-31T02:07:58;12.70;91.60
39021;DHT22;25188;51.958;5.842;2023-05-31T02:10:23;12.80;91.80
39021;DHT22;25188;51.958;5.842;2023-05-31T02:12:49;12.70;91.80
39021;DHT22;25188;51.958;5.842;2023-05-31T02:15:16;12.80;91.90
39021;DHT22;25188;51.958;5.842;2023-05-31T02:17:45;12.70;92.00
39021;DHT22;25188;51.958;5.842;2023-05-31T02:20:15;12.60;91.90
39021;DHT22;25188;51.958;5.842;2023-05-31T02:22:44;12.70;91.90
39021;DHT22;25188;51.958;5.842;2023-05-31T02:25:12;12.70;92.30
39021;DHT22;25188;51.958;5.842;2023-05-31T02:27:38;12.60;92.10
39021;DHT22;25188;51.958;5.842;2023-05-31T02:30:05;12.70;92.10
39021;DHT22;25188;51.958;5.842;2023-05-31T02:32:32;12.60;92.40
39021;DHT22;25188;51.958;5.842;2023-05-31T02:35:04;12.60;92.40
39021;DHT22;25188;51.958;5.842;2023-05-31T02:37:30;12.60;92.40
39021;DHT22;25188;51.958;5.842;2023-05-31T02:39:56;12.60;92.30
39021;DHT22;25188;51.958;5.842;2023-05-31T02:42:21;12.60;92.40
39021;DHT22;25188;51.958;5.842;2023-05-31T02:44:47;12.60;92.40
39021;DHT22;25188;51.958;5.842;2023-05-31T02:47:13;12.60;92.40
39021;DHT22;25188;51.958;5.842;2023-05-31T02:49:38;12.60;92.40
39021;DHT22;25188;51.958;5.842;2023-05-31T02:52:05;12.60;92.70
39021;DHT22;25188;51.958;5.842;2023-05-31T02:54:30;12.50;92.60
39021;DHT22;25188;51.958;5.842;2023-05-31T02:56:56;12.50;92.50
39021;DHT22;25188;51.958;5.842;2023-05-31T02:59:23;12.50;92.60
39021;DHT22;25188;51.958;5.842;2023-05-31T03:01:48;12.50;92.70
39021;DHT22;25188;51.958;5.842;2023-05-31T03:04:14;12.50;92.80
39021;DHT22;25188;51.958;5.842;2023-05-31T03:06:39;12.50;93.10
39021;DHT22;25188;51.958;5.842;2023-05-31T03:09:06;12.50;93.30
39021;DHT22;25188;51.958;5.842;2023-05-31T03:11:32;12.50;93.10
39021;DHT22;25188;51.958;5.842;2023-05-31T03:13:58;12.50;93.20
39021;DHT22;25188;51.958;5.842;2023-05-31T03:16:24;12.40;93.20
39021;DHT22;25188;51.958;5.842;2023-05-31T03:18:50;12.40;93.20
39021;DHT22;25188;51.958;5.842;2023-05-31T03:21:16;12.40;93.20
39021;DHT22;25188;51.958;5.842;2023-05-31T03:23:43;12.40;93.40
39021;DHT22;25188;51.958;5.842;2023-05-31T03:26:09;12.40;93.60
39021;DHT22;25188;51.958;5.842;2023-05-31T03:28:35;12.40;93.40
39021;DHT22;25188;51.958;5.842;2023-05-31T03:31:01;12.40;93.50
39021;DHT22;25188;51.958;5.842;2023-05-31T03:33:27;12.40;93.60
39021;DHT22;25188;51.958;5.842;2023-05-31T03:35:53;12.40;93.70
39021;DHT22;25188;51.958;5.842;2023-05-31T03:38:18;12.40;93.80
39021;DHT22;25188;51.958;5.842;2023-05-31T03:40:44;12.40;93.90
39021;DHT22;25188;51.958;5.842;2023-05-31T03:43:10;12.40;93.70
39021;DHT22;25188;51.958;5.842;2023-05-31T03:45:35;12.40;93.80
39021;DHT22;25188;51.958;5.842;2023-05-31T03:48:01;12.30;93.80
39021;DHT22;25188;51.958;5.842;2023-05-31T03:50:26;12.30;94.00
39021;DHT22;25188;51.958;5.842;2023-05-31T03:52:52;12.40;94.20
39021;DHT22;25188;51.958;5.842;2023-05-31T03:55:18;12.30;94.10
39021;DHT22;25188;51.958;5.842;2023-05-31T03:57:43;12.30;94.10
39021;DHT22;25188;51.958;5.842;2023-05-31T04:00:09;12.30;94.40
39021;DHT22;25188;51.958;5.842;2023-05-31T04:02:37;12.30;94.30
39021;DHT22;25188;51.958;5.842;2023-05-31T04:05:03;12.40;94.40
39021;DHT22;25188;51.958;5.842;2023-05-31T04:07:30;12.40;94.70
39021;DHT22;25188;51.958;5.842;2023-05-31T04:09:56;12.40;94.80
39021;DHT22;25188;51.958;5.842;2023-05-31T04:12:22;12.40;94.70
39021;DHT22;25188;51.958;5.842;2023-05-31T04:14:47;12.40;94.90
39021;DHT22;25188;51.958;5.842;2023-05-31T04:17:13;12.40;95.10
39021;DHT22;25188;51.958;5.842;2023-05-31T04:19:39;12.40;94.90
39021;DHT22;25188;51.958;5.842;2023-05-31T04:22:04;12.40;95.00
39021;DHT22;25188;51.958;5.842;2023-05-31T04:24:30;12.40;95.20
39021;DHT22;25188;51.958;5.842;2023-05-31T04:26:56;12.40;95.30
39021;DHT22;25188;51.958;5.842;2023-05-31T04:29:21;12.40;95.50
39021;DHT22;25188;51.958;5.842;2023-05-31T04:31:47;12.40;95.40
39021;DHT22;25188;51.958;5.842;2023-05-31T04:34:13;12.40;95.40
39021;DHT22;25188;51.958;5.842;2023-05-31T04:36:44;12.40;95.70
39021;DHT22;25188;51.958;5.842;2023-05-31T04:39:17;12.40;95.80
39021;DHT22;25188;51.958;5.842;2023-05-31T04:41:45;12.40;95.50
39021;DHT22;25188;51.958;5.842;2023-05-31T04:44:10;12.40;95.70
39021;DHT22;25188;51.958;5.842;2023-05-31T04:46:36;12.40;95.70
39021;DHT22;25188;51.958;5.842;2023-05-31T04:49:02;12.50;95.70
39021;DHT22;25188;51.958;5.842;2023-05-31T04:51:29;12.50;95.80
39021;DHT22;25188;51.958;5.842;2023-05-31T04:53:56;12.50;95.90
39021;DHT22;25188;51.958;5.842;2023-05-31T04:56:22;12.50;95.80
39021;DHT22;25188;51.958;5.842;2023-05-31T04:58:47;12.50;96.10
39021;DHT22;25188;51.958;5.842;2023-05-31T05:01:13;12.60;96.20
39021;DHT22;25188;51.958;5.842;2023-05-31T05:03:40;12.50;96.00
39021;DHT22;25188;51.958;5.842;2023-05-31T05:06:16;12.60;96.10
39021;DHT22;25188;51.958;5.842;2023-05-31T05:08:42;12.60;96.00
39021;DHT22;25188;51.958;5.842;2023-05-31T05:11:08;12.60;96.10
39021;DHT22;25188;51.958;5.842;2023-05-31T05:13:34;12.60;96.20
39021;DHT22;25188;51.958;5.842;2023-05-31T05:16:00;12.60;96.10
39021;DHT22;25188;51.958;5.842;2023-05-31T05:18:26;12.60;96.30
39021;DHT22;25188;51.958;5.842;2023-05-31T05:20:52;12.60;96.20
39021;DHT22;25188;51.958;5.842;2023-05-31T05:23:18;12.70;96.10
39021;DHT22;25188;51.958;5.842;2023-05-31T05:25:43;12.70;96.30
39021;DHT22;25188;51.958;5.842;2023-05-31T05:28:09;12.70;96.30
39021;DHT22;25188;51.958;5.842;2023-05-31T05:30:37;12.70;96.50
39021;DHT22;25188;51.958;5.842;2023-05-31T05:33:03;12.70;96.40
39021;DHT22;25188;51.958;5.842;2023-05-31T05:35:28;12.80;96.40
39021;DHT22;25188;51.958;5.842;2023-05-31T05:37:54;12.80;96.40
39021;DHT22;25188;51.958;5.842;2023-05-31T05:40:20;12.80;96.30
39021;DHT22;25188;51.958;5.842;2023-05-31T05:42:47;12.90;96.40
39021;DHT22;25188;51.958;5.842;2023-05-31T05:45:13;13.00;96.40
39021;DHT22;25188;51.958;5.842;2023-05-31T05:47:39;12.90;96.40
39021;DHT22;25188;51.958;5.842;2023-05-31T05:50:06;13.00;96.40
39021;DHT22;25188;51.958;5.842;2023-05-31T05:52:32;13.00;96.30
39021;DHT22;25188;51.958;5.842;2023-05-31T05:54:58;13.10;96.40
39021;DHT22;25188;51.958;5.842;2023-05-31T05:57:23;13.10;96.40
39021;DHT22;25188;51.958;5.842;2023-05-31T05:59:50;13.20;96.40
39021;DHT22;25188;51.958;5.842;2023-05-31T06:02:16;13.20;96.40
39021;DHT22;25188;51.958;5.842;2023-05-31T06:04:42;13.20;96.30
39021;DHT22;25188;51.958;5.842;2023-05-31T06:07:07;13.30;96.30
39021;DHT22;25188;51.958;5.842;2023-05-31T06:09:33;13.30;96.20
39021;DHT22;25188;51.958;5.842;2023-05-31T06:11:58;13.40;96.20
39021;DHT22;25188;51.958;5.842;2023-05-31T06:14:24;13.40;96.10
39021;DHT22;25188;51.958;5.842;2023-05-31T06:16:50;13.50;96.00
39021;DHT22;25188;51.958;5.842;2023-05-31T06:19:16;13.50;96.00
39021;DHT22;25188;51.958;5.842;2023-05-31T06:21:41;13.60;96.00
39021;DHT22;25188;51.958;5.842;2023-05-31T06:24:07;13.60;95.90
39021;DHT22;25188;51.958;5.842;2023-05-31T06:26:32;13.70;95.80
39021;DHT22;25188;51.958;5.842;2023-05-31T06:29:01;13.70;95.70
39021;DHT22;25188;51.958;5.842;2023-05-31T06:31:26;13.80;95.70
39021;DHT22;25188;51.958;5.842;2023-05-31T06:33:52;13.80;95.50
39021;DHT22;25188;51.958;5.842;2023-05-31T06:36:18;13.90;95.40
39021;DHT22;25188;51.958;5.842;2023-05-31T06:38:44;14.00;95.40
39021;DHT22;25188;51.958;5.842;2023-05-31T06:41:11;14.00;95.30
39021;DHT22;25188;51.958;5.842;2023-05-31T06:43:37;14.00;95.20
39021;DHT22;25188;51.958;5.842;2023-05-31T06:46:03;14.20;95.20
39021;DHT22;25188;51.958;5.842;2023-05-31T06:48:32;14.20;95.10
39021;DHT22;25188;51.958;5.842;2023-05-31T06:50:59;14.30;95.10
39021;DHT22;25188;51.958;5.842;2023-05-31T06:53:24;14.30;95.00
39021;DHT22;25188;51.958;5.842;2023-05-31T06:55:51;14.40;94.90
39021;DHT22;25188;51.958;5.842;2023-05-31T06:58:17;14.50;94.80
39021;DHT22;25188;51.958;5.842;2023-05-31T07:00:42;14.50;94.60
39021;DHT22;25188;51.958;5.842;2023-05-31T07:03:08;14.60;94.50
39021;DHT22;25188;51.958;5.842;2023-05-31T07:05:34;14.70;94.40
39021;DHT22;25188;51.958;5.842;2023-05-31T07:08:00;14.70;94.20
39021;DHT22;25188;51.958;5.842;2023-05-31T07:10:26;14.80;94.10
39021;DHT22;25188;51.958;5.842;2023-05-31T07:12:53;14.90;94.00
39021;DHT22;25188;51.958;5.842;2023-05-31T07:15:19;15.00;93.80
39021;DHT22;25188;51.958;5.842;2023-05-31T07:17:45;15.10;93.60
39021;DHT22;25188;51.958;5.842;2023-05-31T07:20:11;15.10;93.40
39021;DHT22;25188;51.958;5.842;2023-05-31T07:22:37;15.20;93.20
39021;DHT22;25188;51.958;5.842;2023-05-31T07:25:03;15.20;93.10
39021;DHT22;25188;51.958;5.842;2023-05-31T07:27:30;15.30;93.00
39021;DHT22;25188;51.958;5.842;2023-05-31T07:29:56;15.40;92.90
39021;DHT22;25188;51.958;5.842;2023-05-31T07:32:22;15.50;92.70
39021;DHT22;25188;51.958;5.842;2023-05-31T07:34:47;15.60;92.60
39021;DHT22;25188;51.958;5.842;2023-05-31T07:37:13;15.70;92.40
39021;DHT22;25188;51.958;5.842;2023-05-31T07:39:39;15.70;92.20
39021;DHT22;25188;51.958;5.842;2023-05-31T07:42:05;15.80;92.10
39021;DHT22;25188;51.958;5.842;2023-05-31T07:44:30;15.90;92.00
39021;DHT22;25188;51.958;5.842;2023-05-31T07:46:56;15.90;91.90
39021;DHT22;25188;51.958;5.842;2023-05-31T07:49:22;16.00;91.60
39021;DHT22;25188;51.958;5.842;2023-05-31T07:51:47;16.10;91.50
39021;DHT22;25188;51.958;5.842;2023-05-31T07:54:13;16.20;91.30
39021;DHT22;25188;51.958;5.842;2023-05-31T07:56:39;16.30;91.20
39021;DHT22;25188;51.958;5.842;2023-05-31T07:59:05;16.40;90.90
39021;DHT22;25188;51.958;5.842;2023-05-31T08:01:32;16.40;90.80
39021;DHT22;25188;51.958;5.842;2023-05-31T08:04:12;16.50;90.50
39021;DHT22;25188;51.958;5.842;2023-05-31T08:06:37;16.60;90.20
39021;DHT22;25188;51.958;5.842;2023-05-31T08:09:04;16.70;90.10
39021;DHT22;25188;51.958;5.842;2023-05-31T08:11:34;16.80;90.00
39021;DHT22;25188;51.958;5.842;2023-05-31T08:14:03;16.90;89.80
39021;DHT22;25188;51.958;5.842;2023-05-31T08:16:30;17.00;89.70
39021;DHT22;25188;51.958;5.842;2023-05-31T08:18:56;17.00;89.40
39021;DHT22;25188;51.958;5.842;2023-05-31T08:21:22;17.10;89.10
39021;DHT22;25188;51.958;5.842;2023-05-31T08:23:48;17.20;88.80
39021;DHT22;25188;51.958;5.842;2023-05-31T08:26:13;17.30;88.60
39021;DHT22;25188;51.958;5.842;2023-05-31T08:28:39;17.40;88.30
39021;DHT22;25188;51.958;5.842;2023-05-31T08:31:05;17.40;88.00
39021;DHT22;25188;51.958;5.842;2023-05-31T08:33:32;17.50;87.80
39021;DHT22;25188;51.958;5.842;2023-05-31T08:36:01;17.60;87.50
39021;DHT22;25188;51.958;5.842;2023-05-31T08:38:29;17.60;86.70
39021;DHT22;25188;51.958;5.842;2023-05-31T08:40:58;17.80;86.50
39021;DHT22;25188;51.958;5.842;2023-05-31T08:43:26;17.90;86.40
39021;DHT22;25188;51.958;5.842;2023-05-31T08:45:52;18.00;85.90
39021;DHT22;25188;51.958;5.842;2023-05-31T08:50:57;18.10;85.10
39021;DHT22;25188;51.958;5.842;2023-05-31T08:53:26;18.20;84.40
39021;DHT22;25188;51.958;5.842;2023-05-31T08:55:53;18.30;84.20
39021;DHT22;25188;51.958;5.842;2023-05-31T08:58:19;18.40;83.50
39021;DHT22;25188;51.958;5.842;2023-05-31T09:00:45;18.50;83.30
39021;DHT22;25188;51.958;5.842;2023-05-31T09:03:12;18.60;82.90
39021;DHT22;25188;51.958;5.842;2023-05-31T09:05:38;18.70;82.70
39021;DHT22;25188;51.958;5.842;2023-05-31T09:08:03;18.70;82.10
39021;DHT22;25188;51.958;5.842;2023-05-31T09:10:30;18.80;81.50
39021;DHT22;25188;51.958;5.842;2023-05-31T09:12:56;18.90;80.60
39021;DHT22;25188;51.958;5.842;2023-05-31T09:15:23;19.00;80.30
39021;DHT22;25188;51.958;5.842;2023-05-31T09:17:49;19.10;79.70
39021;DHT22;25188;51.958;5.842;2023-05-31T09:20:15;19.30;79.00
39021;DHT22;25188;51.958;5.842;2023-05-31T09:22:42;19.30;78.00
39021;DHT22;25188;51.958;5.842;2023-05-31T09:25:08;19.50;77.60
39021;DHT22;25188;51.958;5.842;2023-05-31T09:27:38;19.60;76.80
39021;DHT22;25188;51.958;5.842;2023-05-31T09:30:12;19.70;76.30
39021;DHT22;25188;51.958;5.842;2023-05-31T09:32:38;19.80;75.70
39021;DHT22;25188;51.958;5.842;2023-05-31T09:35:15;19.90;75.30
39021;DHT22;25188;51.958;5.842;2023-05-31T09:37:48;20.00;75.50
39021;DHT22;25188;51.958;5.842;2023-05-31T09:40:21;20.10;74.60
39021;DHT22;25188;51.958;5.842;2023-05-31T09:42:51;20.20;74.30
39021;DHT22;25188;51.958;5.842;2023-05-31T09:45:18;20.30;73.70
39021;DHT22;25188;51.958;5.842;2023-05-31T09:47:44;20.40;73.30
39021;DHT22;25188;51.958;5.842;2023-05-31T09:50:11;20.50;72.80
39021;DHT22;25188;51.958;5.842;2023-05-31T09:52:37;20.60;72.70
39021;DHT22;25188;51.958;5.842;2023-05-31T09:55:07;20.70;72.30
39021;DHT22;25188;51.958;5.842;2023-05-31T09:57:38;20.80;71.20
39021;DHT22;25188;51.958;5.842;2023-05-31T10:00:14;20.80;70.40
39021;DHT22;25188;51.958;5.842;2023-05-31T10:02:54;21.00;69.90
39021;DHT22;25188;51.958;5.842;2023-05-31T10:05:20;21.10;69.40
39021;DHT22;25188;51.958;5.842;2023-05-31T10:07:52;21.20;69.40
39021;DHT22;25188;51.958;5.842;2023-05-31T10:10:18;21.20;69.10
39021;DHT22;25188;51.958;5.842;2023-05-31T10:15:18;21.40;69.00
39021;DHT22;25188;51.958;5.842;2023-05-31T10:20:30;21.60;67.20
39021;DHT22;25188;51.958;5.842;2023-05-31T10:23:01;21.70;66.80
39021;DHT22;25188;51.958;5.842;2023-05-31T10:25:31;21.80;66.60
39021;DHT22;25188;51.958;5.842;2023-05-31T10:28:02;22.00;65.80
39021;DHT22;25188;51.958;5.842;2023-05-31T10:30:34;22.20;65.40
39021;DHT22;25188;51.958;5.842;2023-05-31T10:33:13;22.40;64.80
39021;DHT22;25188;51.958;5.842;2023-05-31T10:35:39;22.60;64.80
39021;DHT22;25188;51.958;5.842;2023-05-31T10:38:06;22.90;63.80
39021;DHT22;25188;51.958;5.842;2023-05-31T10:40:41;23.20;63.30
39021;DHT22;25188;51.958;5.842;2023-05-31T10:43:22;23.50;62.60
39021;DHT22;25188;51.958;5.842;2023-05-31T10:45:51;23.90;61.60
39021;DHT22;25188;51.958;5.842;2023-05-31T10:53:18;25.20;59.50
39021;DHT22;25188;51.958;5.842;2023-05-31T10:55:46;25.60;59.60
39021;DHT22;25188;51.958;5.842;2023-05-31T10:58:47;26.10;58.90
39021;DHT22;25188;51.958;5.842;2023-05-31T11:01:14;26.90;57.90
39021;DHT22;25188;51.958;5.842;2023-05-31T11:03:58;27.50;57.60
39021;DHT22;25188;51.958;5.842;2023-05-31T11:06:27;28.20;55.90
39021;DHT22;25188;51.958;5.842;2023-05-31T11:08:57;28.90;56.20
39021;DHT22;25188;51.958;5.842;2023-05-31T11:13:59;29.60;54.20
39021;DHT22;25188;51.958;5.842;2023-05-31T11:16:26;29.60;53.60
39021;DHT22;25188;51.958;5.842;2023-05-31T11:19:15;29.70;52.60
39021;DHT22;25188;51.958;5.842;2023-05-31T11:21:54;29.70;51.10
39021;DHT22;25188;51.958;5.842;2023-05-31T11:27:00;29.60;50.40
39021;DHT22;25188;51.958;5.842;2023-05-31T11:35:03;29.60;48.80
39021;DHT22;25188;51.958;5.842;2023-05-31T11:37:31;29.50;48.70
39021;DHT22;25188;51.958;5.842;2023-05-31T11:40:01;29.50;48.80
39021;DHT22;25188;51.958;5.842;2023-05-31T11:42:30;29.50;48.60
39021;DHT22;25188;51.958;5.842;2023-05-31T11:44:56;29.60;48.30
39021;DHT22;25188;51.958;5.842;2023-05-31T11:47:26;29.60;47.90
39021;DHT22;25188;51.958;5.842;2023-05-31T11:49:53;29.70;47.40
39021;DHT22;25188;51.958;5.842;2023-05-31T11:52:21;29.70;47.30
39021;DHT22;25188;51.958;5.842;2023-05-31T11:54:48;29.70;47.20
39021;DHT22;25188;51.958;5.842;2023-05-31T11:57:15;29.80;47.10
39021;DHT22;25188;51.958;5.842;2023-05-31T11:59:45;30.00;47.20
39021;DHT22;25188;51.958;5.842;2023-05-31T12:02:12;30.10;47.00
39021;DHT22;25188;51.958;5.842;2023-05-31T12:04:42;30.20;46.80
39021;DHT22;25188;51.958;5.842;2023-05-31T12:07:17;30.30;46.60
39021;DHT22;25188;51.958;5.842;2023-05-31T12:09:43;30.30;46.30
39021;DHT22;25188;51.958;5.842;2023-05-31T12:12:09;30.40;46.60
39021;DHT22;25188;51.958;5.842;2023-05-31T12:14:36;30.60;46.60
39021;DHT22;25188;51.958;5.842;2023-05-31T12:17:04;30.70;46.20
39021;DHT22;25188;51.958;5.842;2023-05-31T12:19:30;30.80;45.80
39021;DHT22;25188;51.958;5.842;2023-05-31T12:21:56;31.00;45.80
39021;DHT22;25188;51.958;5.842;2023-05-31T12:24:22;31.10;45.50
39021;DHT22;25188;51.958;5.842;2023-05-31T12:26:48;31.30;45.40
39021;DHT22;25188;51.958;5.842;2023-05-31T12:29:14;31.50;45.30
39021;DHT22;25188;51.958;5.842;2023-05-31T12:31:41;31.60;45.00
39021;DHT22;25188;51.958;5.842;2023-05-31T12:34:11;31.80;44.90
39021;DHT22;25188;51.958;5.842;2023-05-31T12:39:08;32.10;44.30
39021;DHT22;25188;51.958;5.842;2023-05-31T12:41:35;32.20;44.20
39021;DHT22;25188;51.958;5.842;2023-05-31T12:44:01;32.40;44.10
39021;DHT22;25188;51.958;5.842;2023-05-31T12:46:26;32.50;43.90
39021;DHT22;25188;51.958;5.842;2023-05-31T12:48:52;32.60;43.70
39021;DHT22;25188;51.958;5.842;2023-05-31T12:51:22;32.70;43.50
39021;DHT22;25188;51.958;5.842;2023-05-31T12:53:47;32.80;43.20
39021;DHT22;25188;51.958;5.842;2023-05-31T12:56:14;32.90;43.60
39021;DHT22;25188;51.958;5.842;2023-05-31T12:58:40;33.00;42.90
39021;DHT22;25188;51.958;5.842;2023-05-31T13:01:05;33.10;42.50
39021;DHT22;25188;51.958;5.842;2023-05-31T13:03:33;33.30;42.20
39021;DHT22;25188;51.958;5.842;2023-05-31T13:05:58;33.40;42.00
39021;DHT22;25188;51.958;5.842;2023-05-31T13:08:24;33.60;42.00
39021;DHT22;25188;51.958;5.842;2023-05-31T13:10:50;33.60;41.90
39021;DHT22;25188;51.958;5.842;2023-05-31T13:13:15;33.70;41.50
39021;DHT22;25188;51.958;5.842;2023-05-31T13:15:41;33.90;41.40
39021;DHT22;25188;51.958;5.842;2023-05-31T13:18:07;34.00;41.20
39021;DHT22;25188;51.958;5.842;2023-05-31T13:20:33;34.10;41.80
39021;DHT22;25188;51.958;5.842;2023-05-31T13:22:58;34.30;41.10
39021;DHT22;25188;51.958;5.842;2023-05-31T13:25:24;34.30;40.80
39021;DHT22;25188;51.958;5.842;2023-05-31T13:27:50;34.40;41.20
39021;DHT22;25188;51.958;5.842;2023-05-31T13:30:16;34.50;40.20
39021;DHT22;25188;51.958;5.842;2023-05-31T13:32:42;34.70;40.00
39021;DHT22;25188;51.958;5.842;2023-05-31T13:35:08;34.70;40.00
39021;DHT22;25188;51.958;5.842;2023-05-31T13:37:35;34.80;40.10
39021;DHT22;25188;51.958;5.842;2023-05-31T13:40:01;34.90;40.00
39021;DHT22;25188;51.958;5.842;2023-05-31T13:42:27;35.00;39.80
39021;DHT22;25188;51.958;5.842;2023-05-31T13:44:53;35.10;39.60
39021;DHT22;25188;51.958;5.842;2023-05-31T13:47:19;35.30;39.40
39021;DHT22;25188;51.958;5.842;2023-05-31T13:49:45;35.40;38.80
39021;DHT22;25188;51.958;5.842;2023-05-31T13:52:10;35.50;38.80
39021;DHT22;25188;51.958;5.842;2023-05-31T13:54:39;35.60;38.60
39021;DHT22;25188;51.958;5.842;2023-05-31T13:57:04;35.70;38.60
39021;DHT22;25188;51.958;5.842;2023-05-31T13:59:30;35.70;38.70
39021;DHT22;25188;51.958;5.842;2023-05-31T14:01:57;35.70;38.70
39021;DHT22;25188;51.958;5.842;2023-05-31T14:04:22;35.80;38.60
39021;DHT22;25188;51.958;5.842;2023-05-31T14:06:48;35.90;38.40
39021;DHT22;25188;51.958;5.842;2023-05-31T14:09:14;35.90;38.40
39021;DHT22;25188;51.958;5.842;2023-05-31T14:11:40;36.00;38.40
39021;DHT22;25188;51.958;5.842;2023-05-31T14:14:05;36.00;38.30
39021;DHT22;25188;51.958;5.842;2023-05-31T14:16:31;36.00;38.20
39021;DHT22;25188;51.958;5.842;2023-05-31T14:18:56;36.10;38.10
39021;DHT22;25188;51.958;5.842;2023-05-31T14:21:22;36.10;38.00
39021;DHT22;25188;51.958;5.842;2023-05-31T14:23:48;36.20;37.90
39021;DHT22;25188;51.958;5.842;2023-05-31T14:26:13;36.20;37.80
39021;DHT22;25188;51.958;5.842;2023-05-31T14:28:39;36.20;37.60
39021;DHT22;25188;51.958;5.842;2023-05-31T14:31:05;36.30;37.40
39021;DHT22;25188;51.958;5.842;2023-05-31T14:33:30;36.40;37.30
39021;DHT22;25188;51.958;5.842;2023-05-31T14:35:56;36.50;37.00
39021;DHT22;25188;51.958;5.842;2023-05-31T14:38:22;36.70;36.90
39021;DHT22;25188;51.958;5.842;2023-05-31T14:40:47;36.80;36.90
39021;DHT22;25188;51.958;5.842;2023-05-31T14:43:13;36.90;36.80
39021;DHT22;25188;51.958;5.842;2023-05-31T14:45:38;37.00;36.90
39021;DHT22;25188;51.958;5.842;2023-05-31T14:48:04;37.10;36.80
39021;DHT22;25188;51.958;5.842;2023-05-31T14:50:30;37.10;36.50
39021;DHT22;25188;51.958;5.842;2023-05-31T14:52:55;37.10;36.30
39021;DHT22;25188;51.958;5.842;2023-05-31T14:55:21;37.10;36.20
39021;DHT22;25188;51.958;5.842;2023-05-31T14:57:46;37.10;36.30
39021;DHT22;25188;51.958;5.842;2023-05-31T15:00:12;37.20;36.20
39021;DHT22;25188;51.958;5.842;2023-05-31T15:02:38;37.20;35.90
39021;DHT22;25188;51.958;5.842;2023-05-31T15:05:04;37.30;35.70
39021;DHT22;25188;51.958;5.842;2023-05-31T15:07:30;37.50;35.60
39021;DHT22;25188;51.958;5.842;2023-05-31T15:09:55;37.60;35.60
39021;DHT22;25188;51.958;5.842;2023-05-31T15:12:21;37.60;35.70
39021;DHT22;25188;51.958;5.842;2023-05-31T15:14:46;37.60;35.60
39021;DHT22;25188;51.958;5.842;2023-05-31T15:17:13;37.60;35.50
39021;DHT22;25188;51.958;5.842;2023-05-31T15:19:40;37.60;35.40
39021;DHT22;25188;51.958;5.842;2023-05-31T15:22:05;37.60;35.40
39021;DHT22;25188;51.958;5.842;2023-05-31T15:24:31;37.50;35.40
39021;DHT22;25188;51.958;5.842;2023-05-31T15:26:56;37.40;35.40
39021;DHT22;25188;51.958;5.842;2023-05-31T15:29:22;37.30;35.40
39021;DHT22;25188;51.958;5.842;2023-05-31T15:31:50;37.20;35.40
39021;DHT22;25188;51.958;5.842;2023-05-31T15:34:16;37.00;35.30
39021;DHT22;25188;51.958;5.842;2023-05-31T15:36:42;36.70;35.40
39021;DHT22;25188;51.958;5.842;2023-05-31T15:39:07;36.50;35.60
39021;DHT22;25188;51.958;5.842;2023-05-31T15:41:33;36.00;35.80
39021;DHT22;25188;51.958;5.842;2023-05-31T15:43:59;35.70;36.10
39021;DHT22;25188;51.958;5.842;2023-05-31T15:46:25;35.40;36.30
39021;DHT22;25188;51.958;5.842;2023-05-31T15:48:50;35.10;36.70
39021;DHT22;25188;51.958;5.842;2023-05-31T15:51:17;34.70;36.90
39021;DHT22;25188;51.958;5.842;2023-05-31T15:53:42;34.40;37.20
39021;DHT22;25188;51.958;5.842;2023-05-31T15:56:08;34.10;37.70
39021;DHT22;25188;51.958;5.842;2023-05-31T15:58:34;33.80;37.90
39021;DHT22;25188;51.958;5.842;2023-05-31T16:01:00;33.50;38.10
39021;DHT22;25188;51.958;5.842;2023-05-31T16:03:25;33.20;38.20